Terminal Aerodrome Forecast
Issued by NWS

Home | Current Version | Previous Version | Text Only | Print | Product List | Glossary On
Versions: 1 2 3 4 5 6 7 8 9 10 11 12 13 14 15 16
000
FTUS44 KLIX 201700
TAFMSY
TAF
KMSY 201720Z 2018/2118 02011KT P6SM OVC008
     FM202100 04010KT P6SM BKN012
     FM210600 04010KT P6SM BKN008
      TEMPO 2110/2113 5SM BR
     FM211500 05008KT P6SM BKN004=

USA.gov is the U.S. government's official web portal to all federal, state and local government web resources and services.